createdAt,value
2018-11-26T00:00:35.931Z,75.87
2018-11-26T00:03:08.508Z,74.60
2018-11-26T00:05:37.476Z,72.70
2018-11-26T00:08:06.711Z,73.95
2018-11-26T00:10:46.343Z,75.40
2018-11-26T00:13:14.547Z,79.60
2018-11-26T00:15:42.778Z,82.57
2018-11-26T00:18:10.972Z,70.45
2018-11-26T00:20:39.186Z,73.37
2018-11-26T00:23:07.466Z,65.57
2018-11-26T00:25:35.837Z,63.97
2018-11-26T00:28:04.028Z,69.37
2018-11-26T00:30:32.271Z,72.17
2018-11-26T00:33:00.522Z,65.85
2018-11-26T00:35:28.727Z,66.10
2018-11-26T00:37:56.960Z,70.47
2018-11-26T00:40:25.172Z,69.82
2018-11-26T00:42:53.362Z,66.12
2018-11-26T00:45:21.579Z,62.38
2018-11-26T00:47:49.771Z,62.13
2018-11-26T00:50:17.965Z,60.40
2018-11-26T00:52:46.151Z,72.10
2018-11-26T00:55:14.379Z,69.27
2018-11-26T00:57:42.555Z,70.22
2018-11-26T01:00:12.084Z,66.40
2018-11-26T01:02:40.321Z,67.37
2018-11-26T01:05:10.507Z,68.40
2018-11-26T01:07:38.686Z,72.05
2018-11-26T01:10:06.879Z,73.90
2018-11-26T01:12:35.079Z,74.15
2018-11-26T01:15:03.349Z,65.28
2018-11-26T01:17:31.535Z,66.93
2018-11-26T01:19:59.723Z,70.37
2018-11-26T01:22:27.907Z,69.37
2018-11-26T01:24:56.087Z,76.60
2018-11-26T01:27:24.267Z,82.22
2018-11-26T01:29:52.459Z,71.12
2018-11-26T01:32:20.650Z,76.07
2018-11-26T01:34:48.844Z,70.17
2018-11-26T01:37:17.077Z,67.55
2018-11-26T01:39:45.299Z,67.55
2018-11-26T01:42:13.495Z,68.12
2018-11-26T01:44:41.695Z,68.65
2018-11-26T01:47:09.866Z,65.25
2018-11-26T01:49:38.098Z,57.45
2018-11-26T01:52:06.447Z,60.30
2018-11-26T01:54:34.876Z,68.95
2018-11-26T01:57:03.189Z,69.55
2018-11-26T01:59:31.395Z,65.97
2018-11-26T02:01:59.587Z,55.38
2018-11-26T02:04:27.770Z,71.77
2018-11-26T02:06:55.948Z,68.57
2018-11-26T02:09:24.133Z,61.20
2018-11-26T02:11:52.327Z,67.47
2018-11-26T02:14:20.586Z,64.05
2018-11-26T02:16:48.759Z,60.67
2018-11-26T02:19:16.967Z,56.47
2018-11-26T02:21:45.115Z,54.65
2018-11-26T02:24:13.305Z,51.68
2018-11-26T02:26:41.452Z,51.90
2018-11-26T02:29:09.591Z,56.23
2018-11-26T02:31:37.744Z,48.65
2018-11-26T02:34:05.881Z,55.45
2018-11-26T02:36:34.044Z,51.88
2018-11-26T02:39:02.242Z,44.80
2018-11-26T02:41:30.411Z,50.15
2018-11-26T02:43:58.571Z,51.05
2018-11-26T02:46:26.739Z,49.45
2018-11-26T02:48:54.895Z,60.03
2018-11-26T02:51:23.064Z,51.63
2018-11-26T02:53:51.240Z,51.58
2018-11-26T02:56:19.405Z,47.53
2018-11-26T02:58:47.553Z,48.50
2018-11-26T03:01:15.730Z,50.52
2018-11-26T03:03:43.864Z,54.15
2018-11-26T03:06:12.015Z,50.12
2018-11-26T03:08:40.160Z,49.13
2018-11-26T03:11:08.339Z,49.40
2018-11-26T03:13:36.499Z,43.70
2018-11-26T03:16:04.800Z,42.45
2018-11-26T03:18:32.947Z,41.00
2018-11-26T03:21:01.103Z,45.88
2018-11-26T03:23:29.255Z,38.60
2018-11-26T03:25:57.400Z,43.65
2018-11-26T03:28:25.591Z,44.40
2018-11-26T03:30:53.745Z,44.23
2018-11-26T03:33:21.880Z,48.35
2018-11-26T03:35:50.027Z,49.77
2018-11-26T03:38:54.264Z,43.58
2018-11-26T03:41:22.873Z,47.00
2018-11-26T03:43:51.009Z,48.15
2018-11-26T03:46:19.153Z,47.90
2018-11-26T03:48:47.311Z,51.08
2018-11-26T03:51:15.472Z,49.73
2018-11-26T03:53:43.638Z,47.67
2018-11-26T03:56:11.792Z,45.87
2018-11-26T03:58:39.937Z,47.70
2018-11-26T04:01:08.096Z,49.67
2018-11-26T04:03:36.296Z,57.80
2018-11-26T04:06:04.474Z,53.55
2018-11-26T04:08:32.623Z,48.83
2018-11-26T04:11:00.776Z,50.88
2018-11-26T04:13:28.923Z,46.13
2018-11-26T04:15:57.060Z,47.53
2018-11-26T04:18:25.213Z,46.63
2018-11-26T04:20:53.362Z,50.98
2018-11-26T04:23:21.583Z,50.85
2018-11-26T04:25:49.731Z,55.28
2018-11-26T04:28:17.920Z,57.60
2018-11-26T04:30:46.090Z,54.70
2018-11-26T04:33:14.241Z,60.43
2018-11-26T04:35:42.405Z,42.10
2018-11-26T04:38:10.579Z,56.00
2018-11-26T04:40:38.736Z,58.30
2018-11-26T04:43:06.899Z,56.33
2018-11-26T04:45:35.058Z,50.15
2018-11-26T04:48:03.208Z,54.13
2018-11-26T04:50:31.371Z,54.88
2018-11-26T04:52:59.512Z,52.43
2018-11-26T04:55:27.651Z,48.48
2018-11-26T04:57:55.832Z,47.50
2018-11-26T05:00:23.994Z,48.38
2018-11-26T05:02:52.161Z,52.55
2018-11-26T05:05:20.311Z,45.67
2018-11-26T05:07:48.476Z,49.87
2018-11-26T05:10:16.626Z,55.97
2018-11-26T05:12:44.786Z,61.73
2018-11-26T05:15:13.493Z,58.57
2018-11-26T05:17:41.680Z,61.30
2018-11-26T05:20:11.016Z,54.25
2018-11-26T05:22:39.171Z,50.13
2018-11-26T05:25:08.800Z,57.37
2018-11-26T05:27:37.090Z,55.73
2018-11-26T05:30:07.391Z,52.90
2018-11-26T05:32:35.556Z,60.30
2018-11-26T05:35:03.696Z,57.85
2018-11-26T05:37:31.872Z,57.83
2018-11-26T05:40:00.037Z,55.70
2018-11-26T05:42:28.807Z,65.70
2018-11-26T05:44:56.387Z,58.63
2018-11-26T05:47:24.568Z,60.28
2018-11-26T05:49:52.715Z,63.63
2018-11-26T05:52:20.864Z,63.08
2018-11-26T05:54:49.029Z,68.57
2018-11-26T05:57:17.164Z,61.77
2018-11-26T05:59:45.320Z,62.13
2018-11-26T06:02:13.540Z,58.80
2018-11-26T06:04:41.716Z,57.62
2018-11-26T06:07:09.880Z,57.60
2018-11-26T06:09:38.051Z,57.73
2018-11-26T06:12:06.229Z,52.62
2018-11-26T06:14:34.387Z,63.50
2018-11-26T06:17:02.576Z,62.85
2018-11-26T06:19:30.720Z,73.17
2018-11-26T06:21:58.871Z,68.00
2018-11-26T06:24:27.030Z,64.43
2018-11-26T06:26:55.172Z,69.07
2018-11-26T06:29:23.344Z,66.87
2018-11-26T06:31:51.483Z,74.13
2018-11-26T06:34:19.639Z,71.62
2018-11-26T06:36:47.849Z,80.80
2018-11-26T06:39:16.001Z,80.25
2018-11-26T06:41:44.144Z,77.62
2018-11-26T06:44:12.292Z,80.47
2018-11-26T06:46:40.439Z,76.10
2018-11-26T06:49:08.585Z,74.85
2018-11-26T06:51:36.735Z,70.47
2018-11-26T06:54:04.915Z,76.10
2018-11-26T06:56:33.131Z,81.30
2018-11-26T06:59:01.300Z,87.65
2018-11-26T07:01:29.464Z,79.70
2018-11-26T07:03:57.627Z,74.50
2018-11-26T07:06:25.780Z,75.80
2018-11-26T07:08:53.932Z,72.58
2018-11-26T07:11:22.076Z,71.35
2018-11-26T07:13:50.236Z,83.20
2018-11-26T07:16:18.380Z,71.90
2018-11-26T07:18:46.557Z,69.70
2018-11-26T07:21:14.707Z,75.72
2018-11-26T07:23:42.871Z,74.70
2018-11-26T07:26:11.023Z,67.70
2018-11-26T07:28:39.179Z,73.47
2018-11-26T07:31:07.331Z,67.83
2018-11-26T07:33:35.472Z,62.47
2018-11-26T07:36:07.148Z,63.07
2018-11-26T07:38:31.804Z,63.85
2018-11-26T07:40:59.953Z,56.70
2018-11-26T07:43:28.103Z,62.03
2018-11-26T07:45:56.272Z,65.72
2018-11-26T07:48:24.415Z,63.05
2018-11-26T07:50:52.567Z,67.67
2018-11-26T07:53:20.707Z,74.53
2018-11-26T07:55:48.866Z,67.05
2018-11-26T07:58:17.017Z,63.42
2018-11-26T08:00:45.174Z,74.03
2018-11-26T08:03:13.332Z,73.45
2018-11-26T08:05:41.502Z,75.22
2018-11-26T08:08:09.658Z,74.97
2018-11-26T08:10:37.941Z,78.67
2018-11-26T08:13:06.285Z,79.25
2018-11-26T08:15:34.425Z,79.15
2018-11-26T08:18:02.571Z,88.87
2018-11-26T08:20:30.719Z,86.22
2018-11-26T08:22:58.913Z,82.05
2018-11-26T08:25:27.084Z,96.43
2018-11-26T08:27:55.236Z,91.27
2018-11-26T08:30:24.692Z,98.43
2018-11-26T08:32:56.004Z,84.62
2018-11-26T08:35:24.259Z,77.45
2018-11-26T08:37:57.924Z,71.70
2018-11-26T08:40:27.055Z,69.75
2018-11-26T08:43:15.123Z,69.85
2018-11-26T08:45:51.652Z,75.80
2018-11-26T08:48:25.987Z,80.60
2018-11-26T08:50:54.987Z,68.05
2018-11-26T08:53:23.573Z,71.17
2018-11-26T08:55:52.044Z,70.37
2018-11-26T08:58:20.197Z,73.65
2018-11-26T09:00:52.587Z,72.58
2018-11-26T09:03:20.908Z,65.47
2018-11-26T09:05:55.206Z,69.55
2018-11-26T09:08:23.360Z,70.67
2018-11-26T09:10:51.512Z,72.92
2018-11-26T09:13:19.660Z,70.90
2018-11-26T09:15:47.807Z,69.35
2018-11-26T09:18:15.944Z,63.73
2018-11-26T09:20:44.098Z,61.65
2018-11-26T09:23:12.239Z,57.50
2018-11-26T09:25:40.508Z,57.65
2018-11-26T09:28:08.666Z,57.00
2018-11-26T09:30:36.863Z,57.60
2018-11-26T09:33:05.507Z,63.60
2018-11-26T09:35:33.680Z,66.90
2018-11-26T09:38:01.839Z,58.78
2018-11-26T09:40:30.005Z,63.25
2018-11-26T09:42:58.167Z,57.93
2018-11-26T09:45:26.335Z,63.60
2018-11-26T09:47:54.483Z,56.65
2018-11-26T09:50:23.144Z,48.35
2018-11-26T09:52:51.293Z,49.38
2018-11-26T09:55:19.434Z,48.40
2018-11-26T09:57:47.579Z,39.80
2018-11-26T10:00:16.757Z,47.58
2018-11-26T10:02:46.143Z,36.93
2018-11-26T10:05:16.452Z,29.27
2018-11-26T10:07:44.615Z,32.03
2018-11-26T10:10:13.144Z,33.55
2018-11-26T10:12:42.100Z,31.40
2018-11-26T10:15:14.544Z,28.00
2018-11-26T10:17:42.696Z,29.25
2018-11-26T10:20:11.439Z,29.15
2018-11-26T10:22:39.676Z,31.60
2018-11-26T10:25:09.731Z,22.67
2018-11-26T10:27:37.905Z,27.00
2018-11-26T10:30:09.449Z,24.32
2018-11-26T10:32:37.632Z,21.37
2018-11-26T10:35:06.820Z,25.68
2018-11-26T10:37:34.984Z,25.77
2018-11-26T10:40:03.136Z,22.95
2018-11-26T10:42:31.305Z,27.00
2018-11-26T10:44:59.491Z,23.12
2018-11-26T10:47:27.636Z,22.65
2018-11-26T10:49:55.775Z,25.45
2018-11-26T10:52:23.915Z,20.20
2018-11-26T10:54:52.063Z,18.80
2018-11-26T10:57:20.216Z,21.55
2018-11-26T10:59:48.365Z,19.37
2018-11-26T11:02:21.947Z,18.62
2018-11-26T11:04:50.103Z,18.05
2018-11-26T11:07:18.279Z,15.48
2018-11-26T11:09:46.448Z,18.50
2018-11-26T11:12:14.622Z,16.23
2018-11-26T11:14:42.785Z,17.82
2018-11-26T11:17:10.948Z,14.65
2018-11-26T11:19:39.615Z,16.90
2018-11-26T11:22:07.340Z,17.02
2018-11-26T11:24:35.673Z,18.12
2018-11-26T11:27:03.829Z,18.60
2018-11-26T11:29:31.991Z,21.82
2018-11-26T11:32:00.162Z,18.50
2018-11-26T11:34:28.325Z,21.90
2018-11-26T11:36:56.475Z,22.73
2018-11-26T11:39:24.660Z,30.88
2018-11-26T11:41:52.826Z,30.03
2018-11-26T11:44:23.957Z,32.03
2018-11-26T11:46:52.161Z,32.98
2018-11-26T11:49:20.325Z,33.60
2018-11-26T11:51:48.465Z,33.47
2018-11-26T11:54:16.621Z,35.60
2018-11-26T11:56:44.824Z,28.13
2018-11-26T11:59:13.005Z,26.83
2018-11-26T12:01:41.153Z,25.80
2018-11-26T12:04:09.321Z,30.27
2018-11-26T12:06:37.460Z,33.80
2018-11-26T12:09:08.645Z,34.75
2018-11-26T12:11:36.801Z,32.17
2018-11-26T12:14:05.199Z,31.97
2018-11-26T12:16:33.341Z,30.72
2018-11-26T12:19:01.504Z,30.65
2018-11-26T12:21:29.669Z,31.80
2018-11-26T12:23:57.829Z,29.60
2018-11-26T12:26:26.791Z,32.65
2018-11-26T12:28:54.945Z,38.60
2018-11-26T12:31:23.097Z,34.33
2018-11-26T12:33:51.260Z,37.90
2018-11-26T12:36:19.410Z,31.35
2018-11-26T12:38:47.553Z,34.65
2018-11-26T12:41:15.698Z,31.97
2018-11-26T12:43:43.856Z,25.17
2018-11-26T12:46:11.997Z,23.55
2018-11-26T12:48:40.157Z,23.80
2018-11-26T12:51:08.314Z,19.25
2018-11-26T12:53:36.477Z,15.40
2018-11-26T12:56:04.710Z,18.40
2018-11-26T12:58:32.904Z,15.30
2018-11-26T13:01:01.076Z,13.83
2018-11-26T13:03:29.245Z,13.15
2018-11-26T13:05:57.421Z,12.88
2018-11-26T13:08:25.584Z,11.53
2018-11-26T13:10:53.742Z,11.73
2018-11-26T13:13:21.916Z,11.20
2018-11-26T13:15:50.069Z,10.23
2018-11-26T13:18:18.242Z,10.53
2018-11-26T13:20:46.466Z,9.50
2018-11-26T13:23:14.630Z,11.03
2018-11-26T13:25:42.953Z,10.45
2018-11-26T13:28:10.949Z,11.50
2018-11-26T13:30:40.937Z,9.63
2018-11-26T13:33:12.601Z,12.60
2018-11-26T13:35:40.764Z,13.83
2018-11-26T13:38:09.465Z,11.88
2018-11-26T13:40:37.697Z,13.78
2018-11-26T13:43:08.781Z,11.55
2018-11-26T13:45:39.605Z,14.00
2018-11-26T13:48:09.216Z,15.00
2018-11-26T13:50:42.106Z,14.80
2018-11-26T13:53:10.271Z,14.33
2018-11-26T13:55:38.436Z,14.10
2018-11-26T13:58:06.769Z,12.28
2018-11-26T14:00:34.909Z,15.98
2018-11-26T14:03:03.100Z,13.60
2018-11-26T14:05:31.268Z,16.77
2018-11-26T14:07:59.410Z,14.15
2018-11-26T14:10:28.014Z,11.95
2018-11-26T14:13:00.597Z,13.93
2018-11-26T14:15:28.740Z,15.20
2018-11-26T14:17:56.941Z,14.63
2018-11-26T14:20:25.093Z,13.93
2018-11-26T14:22:53.249Z,12.37
2018-11-26T14:25:21.401Z,15.20
2018-11-26T14:27:49.741Z,11.87
2018-11-26T14:30:20.008Z,11.28
2018-11-26T14:32:48.230Z,13.55
2018-11-26T14:35:16.409Z,12.93
2018-11-26T14:37:45.266Z,12.53
2018-11-26T14:40:16.318Z,14.60
2018-11-26T14:42:44.468Z,14.85
2018-11-26T14:45:13.389Z,17.32
2018-11-26T14:47:41.753Z,18.50
2018-11-26T14:50:12.857Z,11.05
2018-11-26T14:52:41.898Z,13.00
2018-11-26T14:55:12.425Z,14.87
2018-11-26T14:57:40.645Z,14.90
2018-11-26T15:00:11.852Z,11.80
2018-11-26T15:02:40.113Z,10.63
2018-11-26T15:05:08.382Z,14.47
2018-11-26T15:07:36.545Z,14.10
2018-11-26T15:10:06.690Z,11.95
2018-11-26T15:12:34.846Z,13.38
2018-11-26T15:15:03.045Z,14.38
2018-11-26T15:17:31.217Z,14.40
2018-11-26T15:19:59.379Z,16.40
2018-11-26T15:22:27.579Z,15.83
2018-11-26T15:24:55.719Z,16.17
2018-11-26T15:27:23.921Z,19.40
2018-11-26T15:29:52.089Z,16.45
2018-11-26T15:32:20.234Z,18.52
2018-11-26T15:34:48.433Z,18.87
2018-11-26T15:37:16.585Z,17.90
2018-11-26T15:39:44.749Z,22.13
2018-11-26T15:42:12.900Z,21.10
2018-11-26T15:44:41.070Z,20.95
2018-11-26T15:47:09.214Z,22.73
2018-11-26T15:49:37.365Z,25.95
2018-11-26T15:52:05.720Z,21.62
2018-11-26T15:54:33.886Z,24.70
2018-11-26T15:57:02.060Z,21.23
2018-11-26T15:59:30.230Z,21.68
2018-11-26T16:01:58.396Z,21.25
2018-11-26T16:04:26.641Z,21.37
2018-11-26T16:06:54.774Z,26.25
2018-11-26T16:09:22.989Z,22.37
2018-11-26T16:11:51.193Z,25.15
2018-11-26T16:14:19.384Z,23.80
2018-11-26T16:16:47.576Z,22.47
2018-11-26T16:19:15.733Z,23.87
2018-11-26T16:21:44.478Z,23.57
2018-11-26T16:24:13.177Z,21.02
2018-11-26T16:26:41.346Z,24.90
2018-11-26T16:29:09.530Z,21.73
2018-11-26T16:31:37.757Z,20.85
2018-11-26T16:34:06.485Z,16.73
2018-11-26T16:36:34.636Z,18.70
2018-11-26T16:39:02.809Z,18.70
2018-11-26T16:41:30.966Z,16.70
2018-11-26T16:43:59.108Z,15.90
2018-11-26T16:46:27.274Z,17.15
2018-11-26T16:48:55.425Z,17.92
2018-11-26T16:51:23.578Z,17.80
2018-11-26T16:53:51.822Z,17.85
2018-11-26T16:56:20.060Z,15.93
2018-11-26T16:58:48.242Z,16.32
2018-11-26T17:01:16.434Z,15.88
2018-11-26T17:03:44.609Z,16.42
2018-11-26T17:06:12.805Z,17.77
2018-11-26T17:08:41.053Z,15.65
2018-11-26T17:11:09.233Z,16.02
2018-11-26T17:13:37.385Z,19.32
2018-11-26T17:16:05.733Z,18.15
2018-11-26T17:18:33.889Z,21.23
2018-11-26T17:21:02.049Z,26.77
2018-11-26T17:23:30.196Z,24.85
2018-11-26T17:25:58.366Z,22.52
2018-11-26T17:28:26.530Z,26.68
2018-11-26T17:30:54.698Z,21.68
2018-11-26T17:33:22.845Z,26.40
2018-11-26T17:35:51.025Z,23.57
2018-11-26T17:38:19.200Z,21.48
2018-11-26T17:40:47.385Z,22.35
2018-11-26T17:43:15.550Z,26.93
2018-11-26T17:45:43.725Z,26.15
2018-11-26T17:48:11.921Z,31.55
2018-11-26T17:50:41.430Z,30.12
2018-11-26T17:53:12.361Z,27.00
2018-11-26T17:55:44.822Z,27.40
2018-11-26T17:58:13.001Z,25.85
2018-11-26T18:00:41.158Z,29.70
2018-11-26T18:03:09.356Z,29.12
2018-11-26T18:05:37.567Z,27.37
2018-11-26T18:08:08.274Z,29.65
2018-11-26T18:10:36.442Z,29.17
2018-11-26T18:13:04.636Z,28.80
2018-11-26T18:15:32.815Z,27.65
2018-11-26T18:18:00.962Z,30.25
2018-11-26T18:20:29.127Z,28.42
2018-11-26T18:22:57.265Z,33.33
2018-11-26T18:25:25.553Z,32.17
2018-11-26T18:28:02.247Z,26.70
2018-11-26T18:30:40.150Z,26.82
2018-11-26T18:33:08.341Z,30.72
2018-11-26T18:35:37.000Z,30.83
2018-11-26T18:38:06.097Z,30.00
2018-11-26T18:40:34.475Z,27.20
2018-11-26T18:43:02.638Z,30.48
2018-11-26T18:45:30.777Z,31.45
2018-11-26T18:47:58.986Z,31.68
2018-11-26T18:50:27.137Z,31.37
2018-11-26T18:52:55.277Z,29.18
2018-11-26T18:55:23.425Z,31.12
2018-11-26T18:57:51.572Z,30.08
2018-11-26T19:00:23.151Z,33.02
2018-11-26T19:02:52.117Z,29.10
2018-11-26T19:05:20.473Z,32.42
2018-11-26T19:07:48.644Z,38.50
2018-11-26T19:10:27.919Z,37.53
2018-11-26T19:13:01.924Z,37.33
2018-11-26T19:15:33.874Z,37.23
2018-11-26T19:18:08.918Z,38.10
2018-11-26T19:20:37.077Z,39.15
2018-11-26T19:23:05.561Z,36.50
2018-11-26T19:25:33.733Z,35.88
2018-11-26T19:28:01.909Z,40.03
2018-11-26T19:30:30.073Z,34.73
2018-11-26T19:32:58.225Z,31.80
2018-11-26T19:35:26.396Z,33.35
2018-11-26T19:37:54.557Z,33.60
2018-11-26T19:40:22.720Z,29.23
2018-11-26T19:42:50.867Z,32.88
2018-11-26T19:45:20.109Z,31.00
2018-11-26T19:47:48.286Z,33.00
2018-11-26T19:50:17.614Z,28.73
2018-11-26T19:52:46.924Z,30.65
2018-11-26T19:55:17.277Z,28.87
2018-11-26T19:57:45.440Z,30.95
2018-11-26T20:00:14.913Z,30.05
2018-11-26T20:02:43.915Z,26.45
2018-11-26T20:05:14.867Z,26.43
2018-11-26T20:07:43.013Z,24.25
2018-11-26T20:10:11.244Z,22.80
2018-11-26T20:12:39.413Z,26.50
2018-11-26T20:15:11.429Z,27.30
2018-11-26T20:17:39.586Z,31.93
2018-11-26T20:20:08.310Z,32.80
2018-11-26T20:22:36.479Z,33.65
2018-11-26T20:25:07.810Z,32.90
2018-11-26T20:27:35.957Z,35.80
2018-11-26T20:30:04.245Z,30.40
2018-11-26T20:32:32.444Z,33.40
2018-11-26T20:35:00.613Z,34.00
2018-11-26T20:37:28.777Z,41.20
2018-11-26T20:39:56.925Z,35.13
2018-11-26T20:42:25.078Z,42.90
2018-11-26T20:44:53.222Z,50.73
2018-11-26T20:47:21.391Z,57.17
2018-11-26T20:49:49.532Z,51.58
2018-11-26T20:52:17.749Z,52.38
2018-11-26T20:54:45.913Z,48.00
2018-11-26T20:57:14.080Z,45.25
2018-11-26T20:59:42.257Z,41.60
2018-11-26T21:02:10.425Z,43.50
2018-11-26T21:04:38.597Z,34.38
2018-11-26T21:07:06.783Z,29.77
2018-11-26T21:09:34.942Z,25.20
2018-11-26T21:12:03.106Z,23.50
2018-11-26T21:14:31.269Z,28.65
2018-11-26T21:16:59.466Z,31.00
2018-11-26T21:19:27.621Z,39.73
2018-11-26T21:21:55.765Z,23.67
2018-11-26T21:24:23.911Z,28.60
2018-11-26T21:26:52.060Z,31.52
2018-11-26T21:29:20.204Z,27.77
2018-11-26T21:31:48.358Z,22.65
2018-11-26T21:34:16.512Z,20.10
2018-11-26T21:36:44.665Z,22.48
2018-11-26T21:39:12.815Z,22.90
2018-11-26T21:41:40.973Z,20.75
2018-11-26T21:44:09.137Z,18.35
2018-11-26T21:46:37.309Z,21.55
2018-11-26T21:49:05.464Z,18.82
2018-11-26T21:51:33.613Z,18.50
2018-11-26T21:54:01.767Z,17.20
2018-11-26T21:56:29.905Z,18.17
2018-11-26T21:58:58.054Z,23.55
2018-11-26T22:01:26.205Z,14.75
2018-11-26T22:03:54.357Z,16.60
2018-11-26T22:06:22.521Z,15.28
2018-11-26T22:08:50.681Z,16.60
2018-11-26T22:11:18.841Z,16.23
2018-11-26T22:13:47.052Z,19.43
2018-11-26T22:16:15.195Z,19.25
2018-11-26T22:18:43.356Z,18.40
2018-11-26T22:21:11.497Z,23.30
2018-11-26T22:23:39.641Z,13.53
2018-11-26T22:26:07.809Z,15.55
2018-11-26T22:28:36.244Z,16.48
2018-11-26T22:31:04.445Z,18.60
2018-11-26T22:33:32.629Z,16.37
2018-11-26T22:36:00.796Z,17.40
2018-11-26T22:38:28.964Z,18.98
2018-11-26T22:40:57.121Z,17.92
2018-11-26T22:43:25.278Z,17.60
2018-11-26T22:45:53.441Z,16.48
2018-11-26T22:48:21.594Z,17.65
2018-11-26T22:50:49.733Z,17.60
2018-11-26T22:53:17.885Z,17.52
2018-11-26T22:55:46.033Z,16.62
2018-11-26T22:58:14.853Z,16.30
2018-11-26T23:00:49.273Z,19.37
2018-11-26T23:03:18.778Z,17.82
2018-11-26T23:05:46.922Z,16.37
2018-11-26T23:08:15.064Z,18.75
2018-11-26T23:10:43.297Z,18.42
2018-11-26T23:13:11.465Z,17.10
2018-11-26T23:15:39.626Z,20.65
2018-11-26T23:18:08.085Z,18.77
2018-11-26T23:20:36.305Z,20.05
2018-11-26T23:23:04.717Z,18.65
2018-11-26T23:25:32.876Z,18.03
2018-11-26T23:28:01.033Z,20.50
2018-11-26T23:30:29.913Z,19.93
2018-11-26T23:33:02.009Z,19.62
2018-11-26T23:35:30.213Z,18.10
2018-11-26T23:37:58.390Z,21.27
2018-11-26T23:40:26.598Z,21.70
2018-11-26T23:42:54.745Z,21.03
2018-11-26T23:45:25.042Z,19.77
2018-11-26T23:47:53.182Z,19.67
2018-11-26T23:50:21.341Z,19.55
2018-11-26T23:52:49.496Z,19.35
2018-11-26T23:55:18.709Z,21.02
2018-11-26T23:57:46.892Z,19.73
